createdAt,value
2022-11-29T00:05:09.476Z,17.61
2022-11-29T00:15:10.739Z,17.53
2022-11-29T00:25:11.985Z,17.61
2022-11-29T00:35:13.272Z,17.54
2022-11-29T00:45:14.567Z,17.58
2022-11-29T00:55:15.855Z,17.56
2022-11-29T01:05:17.126Z,17.58
2022-11-29T01:15:18.423Z,17.58
2022-11-29T01:25:19.736Z,17.58
2022-11-29T01:35:21.013Z,17.52
2022-11-29T01:45:22.285Z,17.52
2022-11-29T01:55:23.534Z,17.54
2022-11-29T02:05:25.091Z,17.53
2022-11-29T02:15:26.351Z,17.55
2022-11-29T02:25:27.602Z,17.54
2022-11-29T02:35:28.872Z,17.60
2022-11-29T02:45:30.135Z,17.53
2022-11-29T02:55:31.437Z,17.63
2022-11-29T03:05:32.755Z,17.72
2022-11-29T03:15:34.196Z,17.75
2022-11-29T03:25:35.492Z,17.75
2022-11-29T03:35:36.776Z,17.83
2022-11-29T03:45:38.004Z,17.80
2022-11-29T03:55:39.244Z,17.86
2022-11-29T04:05:40.528Z,17.90
2022-11-29T04:15:41.831Z,17.87
2022-11-29T04:25:43.172Z,17.93
2022-11-29T04:35:44.428Z,17.97
2022-11-29T04:45:46.887Z,17.96
2022-11-29T04:55:48.138Z,17.98
2022-11-29T05:05:49.401Z,18.02
2022-11-29T05:15:50.669Z,17.90
2022-11-29T05:25:52.025Z,17.99
2022-11-29T05:35:53.285Z,18.12
2022-11-29T05:45:54.505Z,18.13
2022-11-29T05:55:55.783Z,18.13
2022-11-29T06:05:57.046Z,18.11
2022-11-29T06:15:58.509Z,18.25
2022-11-29T06:26:03.899Z,18.32
2022-11-29T06:36:05.585Z,18.40
2022-11-29T06:46:06.813Z,18.49
2022-11-29T06:56:08.191Z,18.47
2022-11-29T07:06:09.585Z,18.47
2022-11-29T07:16:11.015Z,18.49
2022-11-29T07:26:12.485Z,18.42
2022-11-29T07:36:13.806Z,18.49
2022-11-29T07:46:15.215Z,18.47
2022-11-29T07:56:16.503Z,18.43
2022-11-29T08:06:17.895Z,18.51
2022-11-29T08:16:19.350Z,18.50
2022-11-29T08:26:20.740Z,18.48
2022-11-29T08:36:22.174Z,18.46
2022-11-29T08:46:23.512Z,18.50
2022-11-29T08:57:10.180Z,18.46
2022-11-29T09:06:46.345Z,18.48
2022-11-29T09:16:47.781Z,18.45
2022-11-29T09:26:49.165Z,18.46
2022-11-29T09:36:50.534Z,18.54
2022-11-29T09:46:57.223Z,18.48
2022-11-29T09:57:00.054Z,18.41
2022-11-29T10:07:01.443Z,18.49
2022-11-29T10:17:02.797Z,18.46
2022-11-29T10:27:04.042Z,18.47
2022-11-29T10:37:05.534Z,18.50
2022-11-29T10:47:10.940Z,18.49
2022-11-29T10:57:12.634Z,18.37
2022-11-29T11:07:13.902Z,18.35
2022-11-29T11:17:15.293Z,18.31
2022-11-29T11:27:16.659Z,18.33
2022-11-29T11:37:17.921Z,18.18
2022-11-29T11:47:19.322Z,18.19
2022-11-29T11:57:20.669Z,18.20
2022-11-29T12:07:38.758Z,18.25
2022-11-29T12:17:43.427Z,18.36
2022-11-29T12:27:44.888Z,18.38
2022-11-29T12:37:46.318Z,18.35
2022-11-29T12:47:51.851Z,18.37
2022-11-29T12:57:53.755Z,18.26
2022-11-29T13:07:55.145Z,18.35
2022-11-29T13:28:25.264Z,18.29
2022-11-29T13:38:26.828Z,18.34
2022-11-29T13:48:35.085Z,18.36
2022-11-29T13:58:43.180Z,18.32
2022-11-29T14:19:12.403Z,18.31
2022-11-29T14:29:14.004Z,18.23
2022-11-29T14:39:15.378Z,18.23
2022-11-29T14:59:40.600Z,18.24
2022-11-29T15:09:42.620Z,18.12
2022-11-29T15:19:47.479Z,18.05
2022-11-29T15:29:48.908Z,18.03
2022-11-29T15:39:50.302Z,17.96
2022-11-29T15:49:51.705Z,17.93
2022-11-29T15:59:53.133Z,17.95
2022-11-29T16:09:54.475Z,17.89
2022-11-29T16:19:55.752Z,17.86
2022-11-29T16:29:57.122Z,17.86
2022-11-29T16:39:58.370Z,17.81
2022-11-29T16:49:59.956Z,17.83
2022-11-29T17:00:02.285Z,17.80
2022-11-29T17:10:03.566Z,17.79
2022-11-29T17:20:05.014Z,17.77
2022-11-29T17:30:06.364Z,17.78
2022-11-29T17:50:36.423Z,17.68
2022-11-29T18:00:37.648Z,17.72
2022-11-29T18:10:38.892Z,17.69
2022-11-29T18:20:40.175Z,17.61
2022-11-29T18:30:41.641Z,17.60
2022-11-29T18:40:43.098Z,17.65
2022-11-29T18:50:44.351Z,17.56
2022-11-29T19:00:45.621Z,17.60
2022-11-29T19:10:47.108Z,17.61
2022-11-29T19:20:48.431Z,17.56
2022-11-29T19:30:49.892Z,17.54
2022-11-29T19:40:51.240Z,17.59
2022-11-29T19:50:52.508Z,17.53
2022-11-29T20:00:53.792Z,17.54
2022-11-29T20:10:55.081Z,17.51
2022-11-29T20:20:56.482Z,17.54
2022-11-29T20:41:26.681Z,17.50
2022-11-29T20:51:28.047Z,17.46
2022-11-29T21:01:29.467Z,17.51
2022-11-29T21:11:30.770Z,17.49
2022-11-29T21:21:32.081Z,17.60
2022-11-29T21:31:33.450Z,17.49
2022-11-29T21:41:34.845Z,17.52
2022-11-29T21:51:36.215Z,17.45
2022-11-29T22:01:37.617Z,17.43
2022-11-29T22:11:39.150Z,17.50
2022-11-29T22:21:40.516Z,17.44
2022-11-29T22:31:41.820Z,17.42
2022-11-29T22:41:43.155Z,17.41
2022-11-29T22:51:44.571Z,17.43
2022-11-29T23:01:46.005Z,17.47
2022-11-29T23:11:47.316Z,17.43
2022-11-29T23:21:48.701Z,17.40
2022-11-29T23:31:50.024Z,17.43
2022-11-29T23:41:51.386Z,17.45
2022-11-29T23:51:52.654Z,17.36
